createdAt,value
2023-02-06T00:02:55.410Z,2.42
2023-02-06T00:05:19.987Z,2.50
2023-02-06T00:12:09.971Z,1.90
2023-02-06T00:25:18.453Z,2.38
2023-02-06T00:31:04.605Z,2.97
2023-02-06T00:34:16.812Z,1.73
2023-02-06T00:37:13.589Z,2.70
2023-02-06T00:40:27.956Z,2.53
2023-02-06T00:44:04.450Z,2.40
2023-02-06T00:47:05.245Z,2.72
2023-02-06T00:50:15.860Z,2.60
2023-02-06T00:53:13.624Z,2.63
2023-02-06T00:56:11.886Z,2.33
2023-02-06T01:03:05.457Z,3.67
2023-02-06T01:06:21.345Z,3.00
2023-02-06T01:09:02.636Z,2.25
2023-02-06T01:12:13.159Z,2.60
2023-02-06T01:15:13.874Z,2.03
2023-02-06T01:21:30.647Z,2.92
2023-02-06T01:24:36.813Z,2.17
2023-02-06T01:27:50.696Z,3.38
2023-02-06T01:31:21.746Z,2.53
2023-02-06T01:37:23.302Z,2.33
2023-02-06T01:40:42.467Z,1.45
2023-02-06T01:46:28.540Z,1.90
2023-02-06T01:49:13.342Z,3.00
2023-02-06T01:52:02.700Z,2.47
2023-02-06T01:55:29.008Z,1.60
2023-02-06T01:58:39.439Z,1.80
2023-02-06T02:01:36.530Z,1.98
2023-02-06T02:08:02.753Z,2.30
2023-02-06T02:10:47.072Z,2.60
2023-02-06T02:17:30.569Z,1.80
2023-02-06T02:20:25.218Z,2.15
2023-02-06T02:23:25.768Z,3.45
2023-02-06T02:26:33.970Z,2.83
2023-02-06T02:29:38.680Z,1.92
2023-02-06T02:36:11.951Z,1.52
2023-02-06T02:39:07.186Z,2.35
2023-02-06T02:42:15.381Z,2.20
2023-02-06T02:45:07.684Z,1.88
2023-02-06T02:48:08.898Z,1.92
2023-02-06T02:50:46.302Z,1.83
2023-02-06T02:53:47.414Z,2.28
2023-02-06T03:03:01.004Z,1.60
2023-02-06T03:05:51.557Z,1.40
2023-02-06T03:09:34.697Z,2.20
2023-02-06T03:12:36.443Z,2.03
2023-02-06T03:15:37.234Z,1.92
2023-02-06T03:22:00.718Z,2.60
2023-02-06T03:25:00.382Z,1.58
2023-02-06T03:27:37.065Z,2.03
2023-02-06T03:30:35.301Z,2.10
2023-02-06T03:33:22.251Z,2.25
2023-02-06T03:36:13.333Z,1.85
2023-02-06T03:42:05.831Z,1.58
2023-02-06T03:45:27.479Z,2.08
2023-02-06T03:48:17.856Z,1.85
2023-02-06T03:51:34.999Z,1.73
2023-02-06T03:54:39.381Z,1.50
2023-02-06T03:57:39.666Z,1.95
2023-02-06T04:00:44.482Z,2.58
2023-02-06T04:03:32.744Z,1.80
2023-02-06T04:06:24.927Z,1.55
2023-02-06T04:09:38.693Z,1.95
2023-02-06T04:12:45.304Z,3.22
2023-02-06T04:15:19.209Z,1.98
2023-02-06T04:21:11.791Z,1.48
2023-02-06T04:24:08.265Z,1.77
2023-02-06T04:27:25.771Z,1.83
2023-02-06T04:30:28.025Z,1.83
2023-02-06T04:36:24.477Z,1.40
2023-02-06T04:46:56.957Z,2.50
2023-02-06T04:50:10.899Z,2.17
2023-02-06T04:53:05.880Z,2.63
2023-02-06T04:56:22.206Z,1.35
2023-02-06T04:59:52.623Z,2.10
2023-02-06T05:02:43.724Z,3.08
2023-02-06T05:06:13.915Z,1.73
2023-02-06T05:10:17.533Z,1.75
2023-02-06T05:13:27.630Z,1.35
2023-02-06T05:16:46.133Z,4.20
2023-02-06T05:19:49.183Z,2.42
2023-02-06T05:22:49.271Z,1.48
2023-02-06T05:25:51.373Z,1.60
2023-02-06T05:28:36.951Z,1.55
2023-02-06T05:31:18.188Z,1.35
2023-02-06T05:34:24.686Z,1.45
2023-02-06T05:37:26.414Z,1.70
2023-02-06T05:40:38.257Z,2.03
2023-02-06T05:43:16.736Z,1.42
2023-02-06T05:48:40.019Z,1.63
2023-02-06T05:51:09.529Z,2.05
2023-02-06T05:54:21.083Z,2.33
2023-02-06T05:57:02.840Z,1.65
2023-02-06T05:59:43.661Z,2.60
2023-02-06T06:15:06.801Z,1.90
2023-02-06T06:18:17.594Z,2.70
2023-02-06T06:21:20.599Z,2.17
2023-02-06T06:24:05.408Z,2.35
2023-02-06T06:26:40.593Z,2.50
2023-02-06T06:29:08.151Z,2.90
2023-02-06T06:31:43.193Z,1.90
2023-02-06T06:34:11.266Z,1.90
2023-02-06T06:36:38.719Z,2.13
2023-02-06T06:39:06.179Z,1.85
2023-02-06T06:41:33.721Z,2.25
2023-02-06T06:44:01.274Z,2.15
2023-02-06T06:46:28.935Z,2.05
2023-02-06T06:48:56.396Z,2.40
2023-02-06T06:51:23.843Z,2.17
2023-02-06T06:53:51.348Z,2.35
2023-02-06T06:56:18.705Z,2.30
2023-02-06T06:58:46.095Z,1.55
2023-02-06T07:01:14.972Z,2.88
2023-02-06T07:03:44.248Z,2.40
2023-02-06T07:06:12.737Z,1.90
2023-02-06T07:08:42.298Z,2.15
2023-02-06T07:11:18.176Z,2.85
2023-02-06T07:13:46.079Z,2.55
2023-02-06T07:16:13.602Z,2.25
2023-02-06T07:18:42.943Z,2.17
2023-02-06T07:21:10.899Z,2.50
2023-02-06T07:23:38.856Z,2.22
2023-02-06T07:26:06.839Z,1.70
2023-02-06T07:28:34.989Z,3.63
2023-02-06T07:31:25.847Z,2.10
2023-02-06T07:33:53.338Z,2.22
2023-02-06T07:36:20.759Z,3.10
2023-02-06T07:38:49.023Z,2.25
2023-02-06T07:41:18.007Z,2.03
2023-02-06T07:43:45.634Z,2.10
2023-02-06T07:46:13.072Z,2.22
2023-02-06T07:48:40.685Z,2.08
2023-02-06T07:51:09.229Z,2.85
2023-02-06T07:53:37.453Z,2.83
2023-02-06T07:56:17.995Z,1.65
2023-02-06T07:58:50.168Z,2.03
2023-02-06T08:01:17.753Z,2.35
2023-02-06T08:03:45.380Z,2.25
2023-02-06T08:06:17.682Z,3.17
2023-02-06T08:08:46.251Z,2.70
2023-02-06T08:11:16.355Z,2.47
2023-02-06T08:13:44.070Z,2.42
2023-02-06T08:16:14.356Z,2.17
2023-02-06T08:18:42.550Z,2.90
2023-02-06T08:21:19.237Z,2.60
2023-02-06T08:23:47.057Z,3.67
2023-02-06T08:26:18.876Z,4.15
2023-02-06T08:28:47.822Z,2.92
2023-02-06T08:31:25.624Z,3.35
2023-02-06T08:33:53.290Z,3.35
2023-02-06T08:36:22.399Z,3.17
2023-02-06T08:38:50.873Z,2.88
2023-02-06T08:41:20.014Z,3.22
2023-02-06T08:43:48.942Z,3.83
2023-02-06T08:46:18.418Z,3.35
2023-02-06T08:48:46.517Z,3.45
2023-02-06T08:51:15.375Z,2.78
2023-02-06T08:53:42.924Z,3.22
2023-02-06T08:56:12.733Z,3.67
2023-02-06T08:58:40.943Z,3.17
2023-02-06T09:01:10.484Z,3.38
2023-02-06T09:03:38.046Z,3.20
2023-02-06T09:06:10.238Z,3.28
2023-02-06T09:08:39.118Z,3.63
2023-02-06T09:11:18.543Z,3.40
2023-02-06T09:13:49.299Z,4.05
2023-02-06T09:16:19.074Z,3.40
2023-02-06T09:18:47.258Z,3.90
2023-02-06T09:21:17.857Z,4.10
2023-02-06T09:23:51.244Z,4.40
2023-02-06T09:26:21.713Z,3.90
2023-02-06T09:29:01.420Z,3.88
2023-02-06T09:31:30.769Z,3.03
2023-02-06T09:34:00.400Z,3.58
2023-02-06T09:36:30.272Z,4.05
2023-02-06T09:38:58.346Z,3.63
2023-02-06T09:41:32.621Z,3.58
2023-02-06T09:44:04.199Z,3.22
2023-02-06T09:46:34.969Z,3.78
2023-02-06T09:49:11.082Z,3.50
2023-02-06T09:51:44.397Z,3.22
2023-02-06T09:54:17.668Z,3.35
2023-02-06T09:57:01.814Z,3.38
2023-02-06T09:59:39.135Z,4.07
2023-02-06T10:02:32.640Z,3.35
2023-02-06T10:05:07.831Z,4.18
2023-02-06T10:08:03.066Z,3.40
2023-02-06T10:10:42.008Z,3.80
2023-02-06T10:13:26.419Z,3.28
2023-02-06T10:16:06.089Z,2.53
2023-02-06T10:18:45.329Z,2.50
2023-02-06T10:21:12.700Z,2.45
2023-02-06T10:23:51.184Z,2.55
2023-02-06T10:26:19.575Z,2.92
2023-02-06T10:28:53.489Z,2.40
2023-02-06T10:31:28.382Z,2.90
2023-02-06T10:34:19.992Z,2.42
2023-02-06T10:37:24.537Z,2.60
2023-02-06T10:39:59.967Z,2.47
2023-02-06T10:42:46.587Z,2.08
2023-02-06T10:45:32.832Z,1.50
2023-02-06T10:48:29.419Z,3.53
2023-02-06T10:51:19.791Z,2.45
2023-02-06T10:53:52.056Z,2.20
2023-02-06T10:56:25.008Z,2.00
2023-02-06T10:59:04.690Z,1.98
2023-02-06T11:01:37.976Z,2.30
2023-02-06T11:04:10.229Z,2.00
2023-02-06T11:06:40.452Z,2.00
2023-02-06T11:09:09.329Z,2.05
2023-02-06T11:11:39.441Z,2.20
2023-02-06T11:14:30.373Z,1.95
2023-02-06T11:17:00.670Z,1.73
2023-02-06T11:19:37.347Z,1.50
2023-02-06T11:22:04.714Z,2.13
2023-02-06T11:24:32.355Z,1.70
2023-02-06T11:27:02.343Z,1.60
2023-02-06T11:29:39.370Z,2.47
2023-02-06T11:32:09.698Z,2.53
2023-02-06T11:35:24.781Z,1.73
2023-02-06T11:37:54.684Z,2.33
2023-02-06T11:40:25.356Z,2.38
2023-02-06T11:43:13.965Z,2.13
2023-02-06T11:45:41.989Z,2.10
2023-02-06T11:48:33.948Z,1.85
2023-02-06T11:51:01.896Z,1.85
2023-02-06T11:53:29.510Z,1.73
2023-02-06T11:56:12.020Z,1.73
2023-02-06T11:58:39.481Z,2.25
2023-02-06T12:01:16.102Z,1.67
2023-02-06T12:03:57.530Z,2.08
2023-02-06T12:06:35.556Z,1.95
2023-02-06T12:09:09.731Z,1.65
2023-02-06T12:11:43.431Z,1.42
2023-02-06T12:14:38.485Z,2.03
2023-02-06T12:17:34.985Z,2.35
2023-02-06T12:20:16.476Z,2.60
2023-02-06T12:22:50.442Z,1.70
2023-02-06T12:25:34.168Z,1.30
2023-02-06T12:28:16.565Z,1.67
2023-02-06T12:30:51.465Z,1.40
2023-02-06T12:33:23.313Z,1.85
2023-02-06T12:36:00.685Z,1.63
2023-02-06T12:38:54.636Z,2.45
2023-02-06T12:41:43.428Z,1.63
2023-02-06T12:44:30.338Z,1.05
2023-02-06T12:47:04.149Z,1.70
2023-02-06T12:49:39.808Z,1.70
2023-02-06T12:52:31.235Z,2.28
2023-02-06T12:54:58.575Z,1.88
2023-02-06T12:57:29.806Z,1.83
2023-02-06T13:00:33.711Z,1.92
2023-02-06T13:03:27.462Z,1.83
2023-02-06T13:06:12.452Z,1.55
2023-02-06T13:08:56.051Z,1.45
2023-02-06T13:11:29.736Z,1.63
2023-02-06T13:14:19.475Z,1.65
2023-02-06T13:16:53.863Z,1.50
2023-02-06T13:19:41.137Z,1.80
2023-02-06T13:22:08.641Z,1.55
2023-02-06T13:24:41.373Z,1.52
2023-02-06T13:27:08.928Z,1.17
2023-02-06T13:29:41.574Z,1.25
2023-02-06T13:32:12.092Z,0.80
2023-02-06T13:34:59.088Z,1.35
2023-02-06T13:37:26.389Z,1.00
2023-02-06T13:40:27.083Z,1.50
2023-02-06T13:43:13.871Z,1.40
2023-02-06T13:45:59.975Z,1.73
2023-02-06T13:48:58.611Z,1.80
2023-02-06T13:51:52.825Z,1.20
2023-02-06T13:54:52.390Z,1.90
2023-02-06T13:57:23.652Z,1.90
2023-02-06T14:00:17.018Z,1.63
2023-02-06T14:02:51.612Z,1.35
2023-02-06T14:05:48.555Z,1.20
2023-02-06T14:08:20.412Z,1.73
2023-02-06T14:11:44.023Z,1.70
2023-02-06T14:14:31.770Z,1.35
2023-02-06T14:17:26.100Z,1.73
2023-02-06T14:20:16.399Z,1.75
2023-02-06T14:23:06.998Z,1.42
2023-02-06T14:25:46.538Z,1.60
2023-02-06T14:28:19.844Z,2.00
2023-02-06T14:31:15.227Z,1.75
2023-02-06T14:34:00.570Z,1.42
2023-02-06T14:36:31.236Z,1.17
2023-02-06T14:39:10.596Z,1.23
2023-02-06T14:41:39.742Z,1.33
2023-02-06T14:44:18.344Z,1.73
2023-02-06T14:46:46.773Z,1.60
2023-02-06T14:49:29.825Z,1.77
2023-02-06T14:51:57.888Z,1.20
2023-02-06T14:54:33.022Z,0.85
2023-02-06T14:57:07.066Z,1.83
2023-02-06T14:59:34.719Z,1.42
2023-02-06T15:02:13.994Z,1.40
2023-02-06T15:04:49.691Z,1.20
2023-02-06T15:07:28.622Z,2.20
2023-02-06T15:10:26.113Z,1.58
2023-02-06T15:12:54.953Z,1.80
2023-02-06T15:15:29.085Z,1.33
2023-02-06T15:18:02.128Z,1.13
2023-02-06T15:20:41.380Z,1.63
2023-02-06T15:23:23.490Z,1.50
2023-02-06T15:25:54.108Z,0.95
2023-02-06T15:28:26.514Z,1.45
2023-02-06T15:30:56.742Z,1.60
2023-02-06T15:33:33.654Z,1.27
2023-02-06T15:36:03.836Z,1.40
2023-02-06T15:38:33.157Z,1.60
2023-02-06T15:41:05.548Z,1.77
2023-02-06T15:43:36.531Z,1.88
2023-02-06T15:46:06.114Z,1.42
2023-02-06T15:48:36.714Z,1.63
2023-02-06T15:51:18.616Z,1.80
2023-02-06T15:53:48.463Z,1.33
2023-02-06T15:56:37.301Z,1.77
2023-02-06T15:59:07.631Z,1.88
2023-02-06T16:01:39.970Z,1.65
2023-02-06T16:04:19.737Z,1.55
2023-02-06T16:06:58.800Z,1.65
2023-02-06T16:09:26.804Z,1.75
2023-02-06T16:11:56.957Z,1.75
2023-02-06T16:14:38.976Z,1.10
2023-02-06T16:17:36.204Z,1.23
2023-02-06T16:20:07.494Z,1.30
2023-02-06T16:22:40.311Z,1.73
2023-02-06T16:25:21.672Z,2.30
2023-02-06T16:27:53.816Z,1.63
2023-02-06T16:30:32.352Z,1.77
2023-02-06T16:33:12.374Z,1.30
2023-02-06T16:35:39.677Z,1.38
2023-02-06T16:38:11.098Z,1.50
2023-02-06T16:40:38.980Z,1.50
2023-02-06T16:43:11.223Z,1.40
2023-02-06T16:45:38.631Z,1.88
2023-02-06T16:48:17.133Z,0.98
2023-02-06T16:50:46.485Z,1.88
2023-02-06T16:53:25.475Z,1.92
2023-02-06T16:55:52.927Z,1.80
2023-02-06T16:58:24.072Z,1.48
2023-02-06T17:00:51.868Z,1.40
2023-02-06T17:03:19.393Z,1.80
2023-02-06T17:05:50.217Z,1.52
2023-02-06T17:08:20.564Z,2.03
2023-02-06T17:10:48.404Z,1.77
2023-02-06T17:13:21.079Z,1.50
2023-02-06T17:15:49.493Z,2.05
2023-02-06T17:18:18.607Z,1.58
2023-02-06T17:20:48.814Z,1.60
2023-02-06T17:23:16.340Z,1.65
2023-02-06T17:25:45.020Z,2.08
2023-02-06T17:28:18.412Z,1.70
2023-02-06T17:30:46.391Z,1.67
2023-02-06T17:33:13.950Z,2.75
2023-02-06T17:35:41.480Z,1.88
2023-02-06T17:38:10.077Z,2.00
2023-02-06T17:40:40.235Z,1.85
2023-02-06T17:43:08.722Z,2.15
2023-02-06T17:45:39.042Z,2.08
2023-02-06T17:48:07.989Z,1.40
2023-02-06T17:50:37.621Z,1.90
2023-02-06T17:53:27.269Z,1.50
2023-02-06T18:02:52.835Z,2.17
2023-02-06T18:08:54.535Z,1.45
2023-02-06T18:12:16.562Z,1.95
2023-02-06T18:14:28.340Z,1.58
2023-02-06T18:20:07.245Z,2.00
2023-02-06T18:22:41.344Z,2.65
2023-02-06T18:28:18.208Z,2.33
2023-02-06T18:30:46.137Z,2.15
2023-02-06T18:33:22.706Z,2.40
2023-02-06T18:39:05.246Z,3.22
2023-02-06T18:41:51.535Z,3.03
2023-02-06T18:44:22.139Z,2.53
2023-02-06T18:46:52.139Z,2.50
2023-02-06T18:55:28.121Z,2.90
2023-02-06T18:58:02.344Z,3.15
2023-02-06T19:00:30.443Z,3.10
2023-02-06T19:02:58.863Z,3.00
2023-02-06T19:05:39.887Z,3.60
2023-02-06T19:08:15.322Z,3.05
2023-02-06T19:10:45.286Z,3.35
2023-02-06T19:13:12.697Z,3.35
2023-02-06T19:15:40.171Z,2.40
2023-02-06T19:18:08.957Z,3.15
2023-02-06T19:20:36.780Z,2.75
2023-02-06T19:23:04.459Z,2.95
2023-02-06T19:25:32.097Z,2.67
2023-02-06T19:27:59.660Z,3.13
2023-02-06T19:30:27.347Z,2.33
2023-02-06T19:32:54.945Z,2.50
2023-02-06T19:35:23.915Z,2.88
2023-02-06T19:37:51.953Z,3.45
2023-02-06T19:40:19.570Z,2.67
2023-02-06T19:46:08.453Z,3.05
2023-02-06T19:48:36.646Z,4.38
2023-02-06T19:57:41.624Z,3.72
2023-02-06T20:00:12.165Z,3.45
2023-02-06T20:02:43.074Z,3.97
2023-02-06T20:05:10.705Z,3.90
2023-02-06T20:07:40.367Z,4.50
2023-02-06T20:10:08.320Z,3.70
2023-02-06T20:12:35.899Z,4.05
2023-02-06T20:15:03.684Z,4.70
2023-02-06T20:17:34.190Z,3.85
2023-02-06T20:20:01.637Z,3.67
2023-02-06T20:22:43.431Z,4.25
2023-02-06T20:25:11.211Z,4.28
2023-02-06T20:27:38.885Z,4.13
2023-02-06T20:30:07.114Z,4.20
2023-02-06T20:32:34.794Z,4.70
2023-02-06T20:35:02.423Z,4.57
2023-02-06T20:37:30.061Z,4.32
2023-02-06T20:39:57.592Z,3.67
2023-02-06T20:42:27.318Z,3.60
2023-02-06T20:45:00.960Z,3.50
2023-02-06T20:47:28.758Z,4.10
2023-02-06T20:50:00.450Z,3.70
2023-02-06T20:52:28.571Z,3.50
2023-02-06T20:54:56.129Z,4.10
2023-02-06T20:57:23.858Z,4.00
2023-02-06T20:59:51.456Z,3.75
2023-02-06T21:02:35.356Z,3.47
2023-02-06T21:05:14.347Z,4.93
2023-02-06T21:07:42.555Z,3.22
2023-02-06T21:10:10.397Z,3.67
2023-02-06T21:12:40.629Z,3.80
2023-02-06T21:15:09.011Z,3.03
2023-02-06T21:17:36.587Z,3.85
2023-02-06T21:20:05.976Z,2.97
2023-02-06T21:22:33.854Z,3.25
2023-02-06T21:25:01.465Z,3.70
2023-02-06T21:27:29.343Z,3.67
2023-02-06T21:29:56.856Z,4.30
2023-02-06T21:32:25.146Z,4.78
2023-02-06T21:34:52.675Z,4.13
2023-02-06T21:37:22.553Z,3.75
2023-02-06T21:39:50.195Z,3.70
2023-02-06T21:42:20.505Z,4.25
2023-02-06T21:45:23.129Z,3.88
2023-02-06T21:48:01.682Z,3.85
2023-02-06T21:50:29.583Z,3.65
2023-02-06T21:53:00.700Z,3.33
2023-02-06T21:55:31.612Z,3.20
2023-02-06T22:00:57.396Z,5.30
2023-02-06T22:03:34.397Z,3.63
2023-02-06T22:06:28.517Z,3.78
2023-02-06T22:09:00.418Z,3.92
2023-02-06T22:11:30.187Z,4.10
2023-02-06T22:14:03.031Z,3.08
2023-02-06T22:16:37.259Z,3.47
2023-02-06T22:19:07.999Z,3.28
2023-02-06T22:21:39.341Z,3.28
2023-02-06T22:24:11.179Z,3.22
2023-02-06T22:26:39.645Z,3.33
2023-02-06T22:29:12.149Z,3.65
2023-02-06T22:31:43.065Z,4.28
2023-02-06T22:34:16.425Z,3.95
2023-02-06T22:36:44.754Z,3.80
2023-02-06T22:39:13.887Z,4.45
2023-02-06T22:41:44.286Z,3.53
2023-02-06T22:44:16.349Z,3.67
2023-02-06T22:46:46.526Z,3.88
2023-02-06T22:49:14.742Z,3.03
2023-02-06T22:51:42.964Z,3.50
2023-02-06T22:54:11.758Z,3.97
2023-02-06T22:56:43.764Z,3.08
2023-02-06T22:59:28.228Z,3.17
2023-02-06T23:01:58.247Z,3.80
2023-02-06T23:04:36.274Z,4.10
2023-02-06T23:07:04.217Z,3.63
2023-02-06T23:09:34.632Z,3.30
2023-02-06T23:12:06.950Z,3.83
2023-02-06T23:14:37.642Z,3.20
2023-02-06T23:17:10.830Z,4.18
2023-02-06T23:19:40.354Z,3.25
2023-02-06T23:22:11.894Z,3.58
2023-02-06T23:24:39.579Z,3.70
2023-02-06T23:27:07.549Z,3.22
2023-02-06T23:29:35.195Z,3.65
2023-02-06T23:32:04.026Z,3.22
2023-02-06T23:34:31.785Z,4.05
2023-02-06T23:37:02.721Z,4.18
2023-02-06T23:39:30.506Z,3.63
2023-02-06T23:41:58.552Z,5.32
2023-02-06T23:44:39.048Z,4.25
2023-02-06T23:47:06.863Z,3.60
2023-02-06T23:49:38.341Z,3.17
2023-02-06T23:52:06.054Z,3.88
2023-02-06T23:54:38.478Z,4.65
2023-02-06T23:57:06.151Z,3.10
2023-02-06T23:59:33.888Z,3.25
